Time;durP1;ratioP1;P1;durP2;ratioP2;P2;SDS_P1;SDS_P2;PMS_P1;PMS_P2;Temp;Humidity;BMP_temperature;BMP_pressure;BME280_temperature;BME280_humidity;BME280_pressure;Samples;Min_cycle;Max_cycle;Signal;HPM_P1;HPM_P2
2022/03/12 00:00:01;;;;;;;7.60;6.63;;;8.10;40.80;;;;;;5018613;28;20486;-44
2022/03/12 00:02:32;;;;;;;7.90;7.10;;;8.20;41.00;;;;;;5002582;28;20461;-44
2022/03/12 00:05:00;;;;;;;7.47;6.53;;;8.20;41.50;;;;;;5024118;28;20854;-44
2022/03/12 00:07:29;;;;;;;11.00;6.90;;;8.20;41.20;;;;;;5013896;28;20474;-44
2022/03/12 00:09:57;;;;;;;16.60;7.00;;;8.20;41.20;;;;;;5022711;28;20463;-44
2022/03/12 00:12:25;;;;;;;10.83;7.30;;;8.20;41.80;;;;;;5020354;28;20456;-44
2022/03/12 00:14:52;;;;;;;12.27;7.30;;;8.20;40.70;;;;;;5020320;28;21463;-44
2022/03/12 00:17:20;;;;;;;10.93;7.07;;;8.20;40.60;;;;;;5021396;28;20487;-45
2022/03/12 00:19:47;;;;;;;10.47;6.70;;;8.20;41.20;;;;;;5007190;28;20478;-44
2022/03/12 00:22:14;;;;;;;8.97;6.00;;;8.20;41.20;;;;;;5017050;28;20470;-44
2022/03/12 00:24:42;;;;;;;7.87;6.60;;;8.10;40.50;;;;;;5018718;28;20638;-44
2022/03/12 00:27:09;;;;;;;9.30;6.23;;;8.10;40.30;;;;;;5016135;28;20457;-44
2022/03/12 00:29:38;;;;;;;8.10;6.10;;;8.10;40.70;;;;;;5018903;28;20470;-44
2022/03/12 00:32:07;;;;;;;8.87;6.47;;;8.10;40.40;;;;;;5020110;28;20460;-44
2022/03/12 00:34:34;;;;;;;8.30;6.50;;;8.00;40.60;;;;;;5016975;28;20455;-44
2022/03/12 00:37:01;;;;;;;7.03;6.20;;;8.10;40.80;;;;;;5014837;28;20489;-44
2022/03/12 00:39:27;;;;;;;9.53;6.00;;;8.10;40.20;;;;;;5016007;28;20518;-44
2022/03/12 00:41:55;;;;;;;12.23;6.83;;;8.10;40.00;;;;;;5018680;28;20455;-44
2022/03/12 00:44:21;;;;;;;9.60;6.03;;;8.00;40.00;;;;;;5003392;28;20917;-44
2022/03/12 00:46:48;;;;;;;8.10;5.67;;;8.00;40.60;;;;;;5003237;28;20475;-44
2022/03/12 00:49:15;;;;;;;11.10;6.80;;;8.00;40.40;;;;;;5018862;28;20451;-44
2022/03/12 00:51:44;;;;;;;9.13;6.77;;;7.90;40.20;;;;;;5018746;28;20548;-44
2022/03/12 00:54:11;;;;;;;10.10;6.47;;;8.00;40.80;;;;;;5017422;28;20866;-44
2022/03/12 00:56:39;;;;;;;7.43;6.13;;;8.00;41.70;;;;;;5017509;28;20979;-44
2022/03/12 00:59:07;;;;;;;9.10;5.90;;;8.00;41.80;;;;;;5013824;28;20587;-43
2022/03/12 01:01:34;;;;;;;9.17;6.67;;;8.00;40.90;;;;;;5014880;28;20926;-43
2022/03/12 01:04:01;;;;;;;9.07;6.13;;;8.00;41.50;;;;;;5020707;28;20539;-43
2022/03/12 01:06:28;;;;;;;7.00;5.90;;;8.00;41.50;;;;;;5016489;28;20467;-44
2022/03/12 01:08:55;;;;;;;9.43;6.50;;;7.90;40.80;;;;;;5005723;28;20470;-44
2022/03/12 01:11:21;;;;;;;6.63;5.47;;;7.90;40.40;;;;;;5019499;28;20457;-44
2022/03/12 01:13:48;;;;;;;8.13;6.10;;;7.90;40.10;;;;;;5021530;28;20471;-44
2022/03/12 01:16:15;;;;;;;6.73;5.77;;;7.90;40.40;;;;;;5018339;28;20466;-44
2022/03/12 01:18:43;;;;;;;7.67;6.30;;;7.90;41.10;;;;;;5019765;28;20510;-44
2022/03/12 01:21:20;;;;;;;8.40;5.90;;;7.90;41.20;;;;;;5002602;28;20516;-44
2022/03/12 01:23:48;;;;;;;8.77;6.73;;;7.90;41.60;;;;;;5015499;28;20489;-44
2022/03/12 01:26:18;;;;;;;6.70;5.83;;;7.90;40.70;;;;;;5021732;28;20515;-44
2022/03/12 01:28:45;;;;;;;8.23;6.50;;;7.80;40.40;;;;;;5032597;28;20460;-44
2022/03/12 01:31:14;;;;;;;8.57;6.10;;;7.80;40.40;;;;;;5014104;28;20888;-43
2022/03/12 01:33:41;;;;;;;8.67;6.67;;;7.80;40.30;;;;;;5018388;28;20530;-44
2022/03/12 01:36:08;;;;;;;7.53;6.73;;;7.80;40.20;;;;;;5007776;28;20471;-44
2022/03/12 01:38:47;;;;;;;7.23;6.53;;;7.80;40.00;;;;;;5017445;28;20456;-43
2022/03/12 01:41:21;;;;;;;9.37;6.40;;;7.80;40.00;;;;;;5015791;28;20545;-43
2022/03/12 01:43:49;;;;;;;9.27;6.03;;;7.70;39.90;;;;;;5007706;28;20467;-43
2022/03/12 01:46:16;;;;;;;6.40;5.63;;;7.70;40.10;;;;;;5007511;28;20579;-43
2022/03/12 01:48:50;;;;;;;10.13;7.20;;;7.70;40.70;;;;;;5021951;28;20979;-44
2022/03/12 01:51:18;;;;;;;8.10;6.13;;;7.70;41.00;;;;;;5021651;28;20476;-44
2022/03/12 01:53:45;;;;;;;8.57;7.10;;;7.70;40.40;;;;;;5018042;28;20543;-44
2022/03/12 01:56:11;;;;;;;8.33;6.53;;;7.60;40.30;;;;;;5017791;28;20482;-44
2022/03/12 01:58:46;;;;;;;10.33;6.20;;;7.60;40.50;;;;;;5020250;28;20482;-44
2022/03/12 02:01:14;;;;;;;9.57;6.70;;;7.60;40.50;;;;;;5017373;28;20459;-44
2022/03/12 02:03:44;;;;;;;11.90;6.73;;;7.60;40.50;;;;;;5015111;28;20831;-44
2022/03/12 02:06:19;;;;;;;10.33;6.57;;;7.60;40.30;;;;;;5012207;28;20565;-44
2022/03/12 02:08:49;;;;;;;7.50;6.13;;;7.60;40.10;;;;;;5019942;28;20979;-44
2022/03/12 02:11:27;;;;;;;7.40;5.63;;;7.60;40.00;;;;;;5023700;28;20474;-44
2022/03/12 02:14:07;;;;;;;8.70;5.90;;;7.50;40.10;;;;;;5002955;28;21004;-43
2022/03/12 02:16:35;;;;;;;10.60;6.30;;;7.60;40.00;;;;;;5017309;28;20844;-44
2022/03/12 02:19:03;;;;;;;6.30;5.20;;;7.50;40.10;;;;;;5001715;28;20526;-43
2022/03/12 02:21:38;;;;;;;9.20;5.47;;;7.50;40.00;;;;;;5018223;28;20455;-43
2022/03/12 02:24:14;;;;;;;8.03;6.50;;;7.50;40.00;;;;;;5020026;28;20541;-43
2022/03/12 02:26:43;;;;;;;8.70;5.80;;;7.50;40.30;;;;;;5018753;28;20498;-43
2022/03/12 02:29:12;;;;;;;7.13;6.00;;;7.50;40.30;;;;;;5021648;28;20794;-45
2022/03/12 02:31:45;;;;;;;7.73;6.43;;;7.50;40.20;;;;;;5023544;28;20455;-44
2022/03/12 02:34:12;;;;;;;7.57;5.80;;;7.50;40.20;;;;;;5026172;28;20566;-44
2022/03/12 02:36:40;;;;;;;6.90;5.87;;;7.50;40.10;;;;;;5035969;28;20465;-43
2022/03/12 02:39:08;;;;;;;10.20;5.97;;;7.50;40.00;;;;;;5025901;28;20469;-43
2022/03/12 02:41:34;;;;;;;9.73;6.23;;;7.50;40.30;;;;;;5012902;28;21370;-43
2022/03/12 02:44:01;;;;;;;8.13;5.80;;;7.50;41.10;;;;;;5024387;28;20459;-44
2022/03/12 02:46:29;;;;;;;11.60;6.63;;;7.50;41.40;;;;;;5024257;28;20499;-44
2022/03/12 02:48:56;;;;;;;7.73;6.50;;;7.50;41.40;;;;;;5025177;28;20458;-44
2022/03/12 02:51:23;;;;;;;10.47;6.30;;;7.50;41.40;;;;;;5028166;28;20460;-43
2022/03/12 02:53:51;;;;;;;8.10;5.30;;;7.50;41.90;;;;;;5024696;28;20459;-43
2022/03/12 02:56:19;;;;;;;7.43;5.77;;;7.40;41.40;;;;;;5021212;28;20475;-43
2022/03/12 02:58:46;;;;;;;7.50;5.70;;;7.40;40.30;;;;;;5025306;28;20464;-44
2022/03/12 03:01:14;;;;;;;9.10;6.17;;;7.40;40.20;;;;;;5025393;28;20463;-44
2022/03/12 03:03:42;;;;;;;6.47;5.87;;;7.40;40.10;;;;;;5035110;28;20471;-44
2022/03/12 03:06:09;;;;;;;6.20;5.33;;;7.40;40.20;;;;;;5022154;28;20483;-44
2022/03/12 03:08:39;;;;;;;8.13;5.40;;;7.40;40.80;;;;;;5024936;28;20537;-43
2022/03/12 03:11:16;;;;;;;8.13;5.30;;;7.30;40.20;;;;;;5024294;28;20455;-44
2022/03/12 03:13:44;;;;;;;6.10;5.50;;;7.30;40.60;;;;;;5021605;28;20838;-44
2022/03/12 03:16:21;;;;;;;7.13;6.43;;;7.30;41.10;;;;;;5022322;28;20458;-45
2022/03/12 03:18:53;;;;;;;8.37;7.57;;;7.30;40.70;;;;;;5009466;28;21041;-44
2022/03/12 03:21:23;;;;;;;12.73;6.80;;;7.30;41.10;;;;;;5022866;28;20937;-44
2022/03/12 03:23:49;;;;;;;8.67;6.00;;;7.30;41.80;;;;;;5022669;28;20466;-44
2022/03/12 03:26:39;;;;;;;10.47;6.40;;;7.30;42.00;;;;;;5010826;28;20491;-44
2022/03/12 03:29:07;;;;;;;8.83;5.70;;;7.20;41.70;;;;;;5018606;28;20456;-44
2022/03/12 03:31:35;;;;;;;6.70;6.00;;;7.20;41.90;;;;;;5022973;28;21072;-44
2022/03/12 03:34:02;;;;;;;10.50;6.37;;;7.20;41.90;;;;;;5019149;28;20456;-44
2022/03/12 03:36:29;;;;;;;9.23;5.67;;;7.20;42.00;;;;;;5025097;28;20501;-44
2022/03/12 03:38:55;;;;;;;11.30;6.87;;;7.10;42.20;;;;;;5014272;28;20450;-44
2022/03/12 03:41:22;;;;;;;7.43;6.33;;;7.10;41.00;;;;;;5019879;28;21071;-44
2022/03/12 03:43:51;;;;;;;8.87;6.47;;;7.10;41.70;;;;;;5018324;28;20480;-44
2022/03/12 03:46:21;;;;;;;8.60;6.13;;;7.00;41.80;;;;;;5019307;28;20492;-44
2022/03/12 03:48:52;;;;;;;8.50;6.27;;;7.00;41.80;;;;;;5011011;28;20566;-44
2022/03/12 03:51:21;;;;;;;6.77;5.83;;;7.00;41.10;;;;;;5022884;28;20954;-44
2022/03/12 03:53:48;;;;;;;9.27;7.63;;;6.90;40.90;;;;;;5020077;28;20452;-46
2022/03/12 03:56:16;;;;;;;8.90;6.57;;;6.90;41.20;;;;;;5021810;28;20503;-46
2022/03/12 03:58:43;;;;;;;6.80;5.10;;;6.90;42.20;;;;;;5006258;28;20467;-45
2022/03/12 04:01:14;;;;;;;9.13;6.30;;;6.90;42.70;;;;;;5022955;28;20471;-45
2022/03/12 04:03:47;;;;;;;7.27;4.90;;;6.90;42.70;;;;;;5009994;28;21008;-45
2022/03/12 04:06:16;;;;;;;7.13;5.57;;;6.80;43.00;;;;;;5022414;28;20484;-45
2022/03/12 04:08:44;;;;;;;7.67;6.00;;;6.80;43.40;;;;;;5020652;28;20493;-45
2022/03/12 04:11:19;;;;;;;7.57;6.07;;;6.70;43.10;;;;;;5010213;28;21019;-45
2022/03/12 04:13:47;;;;;;;8.53;5.23;;;6.70;43.30;;;;;;5022896;28;20463;-45
2022/03/12 04:16:14;;;;;;;8.40;6.20;;;6.60;43.40;;;;;;5019768;28;20835;-45
2022/03/12 04:18:45;;;;;;;8.50;5.87;;;6.60;43.40;;;;;;5022078;28;20463;-45
2022/03/12 04:21:13;;;;;;;8.43;5.73;;;6.50;43.70;;;;;;5022201;28;20497;-45
2022/03/12 04:23:47;;;;;;;8.47;5.83;;;6.50;43.80;;;;;;5019950;28;20468;-46
2022/03/12 04:26:15;;;;;;;8.30;5.50;;;6.50;43.50;;;;;;5026092;28;20490;-45
2022/03/12 04:28:42;;;;;;;13.40;7.47;;;6.50;43.80;;;;;;5015537;28;20456;-45
2022/03/12 04:31:09;;;;;;;7.40;5.33;;;6.40;44.20;;;;;;5023046;28;20499;-45
2022/03/12 04:33:38;;;;;;;10.30;6.13;;;6.40;44.20;;;;;;5018138;28;20478;-45
2022/03/12 04:36:09;;;;;;;7.70;5.87;;;6.40;43.80;;;;;;5021934;28;20836;-45
2022/03/12 04:38:37;;;;;;;7.13;5.70;;;6.30;43.60;;;;;;5017305;28;20463;-45
2022/03/12 04:41:04;;;;;;;6.63;5.93;;;6.30;44.20;;;;;;5019997;28;20460;-45
2022/03/12 04:43:31;;;;;;;6.03;5.43;;;6.30;44.20;;;;;;5018723;28;20460;-45
2022/03/12 04:46:00;;;;;;;11.03;7.07;;;6.20;43.80;;;;;;5019476;28;20484;-45
2022/03/12 04:48:28;;;;;;;10.00;7.00;;;6.20;44.30;;;;;;5035940;28;20452;-45
2022/03/12 04:50:56;;;;;;;8.03;6.40;;;6.20;44.70;;;;;;5021113;28;20906;-45
2022/03/12 04:53:23;;;;;;;8.97;5.80;;;6.20;44.40;;;;;;5017383;28;20973;-45
2022/03/12 04:55:50;;;;;;;6.27;5.67;;;6.20;44.50;;;;;;5009095;28;20463;-45
2022/03/12 04:58:18;;;;;;;11.40;7.37;;;6.20;43.90;;;;;;5023288;28;20467;-45
2022/03/12 05:00:46;;;;;;;21.23;13.53;;;6.10;43.80;;;;;;5019256;28;20830;-45
2022/03/12 05:03:22;;;;;;;16.83;10.17;;;6.10;43.70;;;;;;5016810;28;20464;-45
2022/03/12 05:05:53;;;;;;;16.13;10.40;;;6.10;43.00;;;;;;5018020;28;20715;-45
2022/03/12 05:08:24;;;;;;;13.80;9.60;;;6.10;43.10;;;;;;5018865;28;20460;-45
2022/03/12 05:10:56;;;;;;;14.73;9.37;;;6.10;44.00;;;;;;5022639;28;20574;-45
2022/03/12 05:13:24;;;;;;;13.23;8.50;;;6.10;44.30;;;;;;5016815;28;20539;-46
2022/03/12 05:15:55;;;;;;;12.33;7.80;;;6.00;44.70;;;;;;5020552;28;20873;-45
2022/03/12 05:18:23;;;;;;;13.93;7.67;;;6.00;45.00;;;;;;5022878;28;20463;-45
2022/03/12 05:20:51;;;;;;;13.20;6.97;;;6.00;45.10;;;;;;5009229;28;20463;-46
2022/03/12 05:23:19;;;;;;;9.40;7.10;;;5.90;45.30;;;;;;5022217;28;20986;-46
2022/03/12 05:25:48;;;;;;;10.20;6.50;;;5.90;44.90;;;;;;5021681;28;20594;-46
2022/03/12 05:28:19;;;;;;;7.40;5.90;;;5.90;45.40;;;;;;5018540;28;20813;-46
2022/03/12 05:30:46;;;;;;;8.90;5.80;;;5.90;45.40;;;;;;5020499;28;20466;-46
2022/03/12 05:33:16;;;;;;;7.60;5.40;;;5.80;45.40;;;;;;5019966;28;20466;-46
2022/03/12 05:35:49;;;;;;;9.57;6.00;;;5.80;45.30;;;;;;5015908;28;20479;-45
2022/03/12 05:38:16;;;;;;;6.53;5.10;;;5.80;45.90;;;;;;5015617;28;20468;-46
2022/03/12 05:40:45;;;;;;;7.33;5.93;;;5.80;46.00;;;;;;5018528;28;20550;-46
2022/03/12 05:43:15;;;;;;;9.40;6.00;;;5.80;45.80;;;;;;5016908;28;20459;-46
2022/03/12 05:45:47;;;;;;;10.60;6.00;;;5.80;45.80;;;;;;5019362;28;20517;-46
2022/03/12 05:48:15;;;;;;;6.87;5.33;;;5.80;45.10;;;;;;5016098;28;20460;-45
2022/03/12 05:50:44;;;;;;;8.60;5.30;;;5.70;44.70;;;;;;5016567;28;20491;-45
2022/03/12 05:53:11;;;;;;;8.20;5.67;;;5.80;45.60;;;;;;5017456;28;20451;-46
2022/03/12 05:55:39;;;;;;;8.70;5.70;;;5.80;45.40;;;;;;5018871;28;20456;-46
2022/03/12 05:58:08;;;;;;;8.00;5.70;;;5.80;45.60;;;;;;5020438;28;20456;-45
2022/03/12 06:00:35;;;;;;;7.40;5.60;;;5.80;45.80;;;;;;5033477;28;20459;-45
2022/03/12 06:03:02;;;;;;;8.07;5.73;;;5.70;45.40;;;;;;5018410;28;20875;-46
2022/03/12 06:05:30;;;;;;;7.27;5.20;;;5.80;44.90;;;;;;5018056;28;20843;-47
2022/03/12 06:07:59;;;;;;;9.10;5.63;;;5.80;45.10;;;;;;5018132;28;20487;-47
2022/03/12 06:10:29;;;;;;;9.13;5.77;;;5.80;44.80;;;;;;5018566;28;20460;-47
2022/03/12 06:12:58;;;;;;;7.87;6.00;;;5.80;44.90;;;;;;5016162;28;20470;-47
2022/03/12 06:15:26;;;;;;;8.50;5.27;;;5.80;45.10;;;;;;5017400;28;20956;-47
2022/03/12 06:17:54;;;;;;;6.97;5.77;;;5.80;45.10;;;;;;5002048;28;20975;-47
2022/03/12 06:20:22;;;;;;;6.77;5.73;;;5.80;44.40;;;;;;5013893;28;20456;-47
2022/03/12 06:22:51;;;;;;;8.77;6.00;;;5.80;44.00;;;;;;5017934;28;20469;-47
2022/03/12 06:25:19;;;;;;;7.40;5.60;;;5.90;44.10;;;;;;5015346;28;20470;-47
2022/03/12 06:27:53;;;;;;;7.53;5.80;;;5.90;43.60;;;;;;5018133;28;20497;-47
2022/03/12 06:30:24;;;;;;;7.47;6.57;;;6.00;43.80;;;;;;5013932;28;20455;-47
2022/03/12 06:32:52;;;;;;;8.37;6.00;;;6.00;44.20;;;;;;5017385;28;21055;-47
2022/03/12 06:35:19;;;;;;;7.87;5.87;;;6.00;43.90;;;;;;5019316;28;20461;-47
2022/03/12 06:37:46;;;;;;;9.60;5.77;;;6.10;43.70;;;;;;5016240;28;20978;-47
2022/03/12 06:40:14;;;;;;;6.67;5.67;;;6.20;43.50;;;;;;5001720;28;20462;-47
2022/03/12 06:42:46;;;;;;;6.93;4.83;;;6.20;43.80;;;;;;5016038;28;20550;-47
2022/03/12 06:45:16;;;;;;;6.90;5.67;;;6.20;43.80;;;;;;5014146;28;20463;-47
2022/03/12 06:47:46;;;;;;;6.83;5.07;;;6.20;43.30;;;;;;5020934;28;20498;-47
2022/03/12 06:50:17;;;;;;;5.47;4.73;;;6.20;42.50;;;;;;5018652;28;20976;-47
2022/03/12 06:52:48;;;;;;;8.30;5.03;;;6.30;42.50;;;;;;5015863;28;20456;-47
2022/03/12 06:55:17;;;;;;;8.77;5.23;;;6.30;42.10;;;;;;5016747;28;20458;-47
2022/03/12 06:57:45;;;;;;;7.00;5.50;;;6.30;42.30;;;;;;5013963;28;20476;-47
2022/03/12 07:00:16;;;;;;;7.37;6.60;;;6.30;41.40;;;;;;5014547;28;20502;-47
2022/03/12 07:02:43;;;;;;;7.60;6.43;;;6.30;41.50;;;;;;5015360;28;20460;-48
2022/03/12 07:05:11;;;;;;;7.97;5.83;;;6.40;41.50;;;;;;5018706;28;20468;-47
2022/03/12 07:07:38;;;;;;;7.03;5.80;;;6.40;41.30;;;;;;5016991;28;20487;-47
2022/03/12 07:10:06;;;;;;;7.13;5.37;;;6.40;41.30;;;;;;5013997;28;20460;-48
2022/03/12 07:12:34;;;;;;;7.20;5.67;;;6.40;41.40;;;;;;5015044;28;20460;-46
2022/03/12 07:15:01;;;;;;;6.27;5.40;;;6.40;41.30;;;;;;5013131;28;20467;-47
2022/03/12 07:17:28;;;;;;;7.63;4.97;;;6.50;41.40;;;;;;5034319;28;20963;-47
2022/03/12 07:19:55;;;;;;;7.43;5.33;;;6.50;42.80;;;;;;5021174;28;20567;-47
2022/03/12 07:22:21;;;;;;;6.27;5.67;;;6.60;42.30;;;;;;5034123;28;20460;-47
2022/03/12 07:24:48;;;;;;;8.87;6.60;;;6.60;41.20;;;;;;5020938;28;20840;-46
2022/03/12 07:27:15;;;;;;;8.83;6.33;;;6.60;41.30;;;;;;5017575;28;20493;-47
2022/03/12 07:29:41;;;;;;;7.53;5.83;;;6.60;41.40;;;;;;5010017;28;20463;-47
2022/03/12 07:32:08;;;;;;;7.93;6.40;;;6.60;41.40;;;;;;5017267;28;20513;-47
2022/03/12 07:34:35;;;;;;;9.27;6.33;;;6.70;42.50;;;;;;5005166;28;20459;-47
2022/03/12 07:37:02;;;;;;;12.00;6.70;;;6.80;42.50;;;;;;5003986;28;20462;-47
2022/03/12 07:39:29;;;;;;;10.73;5.80;;;6.80;41.70;;;;;;5021715;28;20545;-47
2022/03/12 07:41:56;;;;;;;8.40;7.00;;;6.90;41.70;;;;;;5020487;28;20471;-47
2022/03/12 07:44:23;;;;;;;10.63;6.10;;;6.90;41.50;;;;;;5019187;28;20464;-47
2022/03/12 07:46:50;;;;;;;8.43;6.00;;;7.00;41.60;;;;;;5005555;28;20493;-47
2022/03/12 07:49:16;;;;;;;7.53;5.90;;;7.00;41.00;;;;;;5015358;28;20459;-47
2022/03/12 07:51:43;;;;;;;7.53;6.73;;;7.10;41.10;;;;;;5017039;28;20558;-47
2022/03/12 07:54:13;;;;;;;9.90;6.30;;;7.10;41.00;;;;;;5022692;28;20482;-47
2022/03/12 07:56:39;;;;;;;10.50;6.27;;;7.20;41.10;;;;;;5022654;28;20466;-46
2022/03/12 07:59:06;;;;;;;7.63;6.23;;;7.30;41.70;;;;;;5021164;28;20703;-47
2022/03/12 08:01:33;;;;;;;6.70;5.80;;;7.40;41.60;;;;;;5018606;28;20462;-46
2022/03/12 08:04:01;;;;;;;7.60;5.77;;;7.40;41.10;;;;;;5018728;28;20558;-46
2022/03/12 08:06:29;;;;;;;9.00;6.60;;;7.40;41.30;;;;;;5014594;28;20497;-47
2022/03/12 08:08:57;;;;;;;9.47;6.17;;;7.50;41.30;;;;;;5016768;28;20459;-46
2022/03/12 08:11:25;;;;;;;8.37;6.50;;;7.50;41.10;;;;;;5021296;28;20463;-47
2022/03/12 08:13:54;;;;;;;7.33;6.10;;;7.60;42.70;;;;;;5021110;28;20458;-46
2022/03/12 08:16:21;;;;;;;10.20;7.37;;;7.60;41.00;;;;;;5019717;28;20522;-46
2022/03/12 08:18:48;;;;;;;11.07;8.13;;;7.60;40.50;;;;;;5022692;28;21019;-46
2022/03/12 08:21:15;;;;;;;7.30;6.33;;;7.60;40.30;;;;;;5031372;28;20475;-46
2022/03/12 08:23:42;;;;;;;10.33;6.47;;;7.60;40.20;;;;;;5004934;28;20463;-46
2022/03/12 08:26:09;;;;;;;8.33;6.20;;;7.60;40.10;;;;;;5018024;28;20463;-46
2022/03/12 08:28:36;;;;;;;8.07;6.60;;;7.50;40.20;;;;;;5019715;28;20494;-46
2022/03/12 08:31:04;;;;;;;6.47;5.73;;;7.60;40.20;;;;;;5019494;28;20469;-46
2022/03/12 08:33:32;;;;;;;7.47;6.40;;;7.60;40.20;;;;;;5019085;28;20518;-46
2022/03/12 08:36:00;;;;;;;7.13;6.07;;;7.70;40.30;;;;;;5019181;28;20609;-46
2022/03/12 08:38:27;;;;;;;7.30;6.60;;;7.70;40.20;;;;;;5021703;28;20986;-46
2022/03/12 08:40:54;;;;;;;6.73;5.70;;;7.80;40.30;;;;;;5020876;28;20495;-46
2022/03/12 08:43:21;;;;;;;7.30;5.70;;;7.90;41.50;;;;;;5019426;28;20456;-46
2022/03/12 08:45:48;;;;;;;9.27;6.40;;;8.00;41.30;;;;;;5004699;28;20464;-46
2022/03/12 08:48:16;;;;;;;7.13;5.60;;;8.10;40.40;;;;;;5021685;28;20489;-47
2022/03/12 08:50:44;;;;;;;7.60;5.93;;;8.20;40.20;;;;;;5000321;28;20536;-47
2022/03/12 08:53:12;;;;;;;8.93;5.97;;;8.30;40.50;;;;;;5019781;28;20459;-47
2022/03/12 08:55:40;;;;;;;7.20;5.80;;;8.60;41.10;;;;;;5025721;28;20463;-46
2022/03/12 08:58:07;;;;;;;8.50;7.20;;;8.80;40.60;;;;;;5039266;28;20582;-47
2022/03/12 09:00:34;;;;;;;6.03;5.40;;;9.00;39.30;;;;;;5021289;28;21061;-47
2022/03/12 09:03:01;;;;;;;6.63;5.93;;;9.10;38.90;;;;;;5018117;28;20461;-47
2022/03/12 09:05:28;;;;;;;7.00;5.73;;;9.20;38.70;;;;;;5019726;28;20486;-46
2022/03/12 09:07:55;;;;;;;8.10;6.67;;;9.20;38.40;;;;;;5013442;28;20584;-47
2022/03/12 09:10:23;;;;;;;13.30;11.40;;;9.30;39.70;;;;;;5017476;28;20805;-47
2022/03/12 09:12:50;;;;;;;16.00;13.30;;;9.30;39.40;;;;;;5014742;28;20457;-47
2022/03/12 09:15:21;;;;;;;9.93;8.40;;;9.30;38.60;;;;;;5007649;28;20585;-47
2022/03/12 09:17:47;;;;;;;9.50;8.50;;;9.30;38.30;;;;;;5012868;28;20495;-47
2022/03/12 09:20:14;;;;;;;10.10;7.20;;;9.40;38.40;;;;;;5017970;28;21116;-47
2022/03/12 09:22:41;;;;;;;8.40;6.50;;;9.40;39.40;;;;;;5020345;28;20839;-46
2022/03/12 09:25:12;;;;;;;9.20;6.73;;;9.50;40.40;;;;;;5021582;28;20460;-46
2022/03/12 09:27:40;;;;;;;8.90;7.00;;;9.50;39.70;;;;;;5016673;28;20519;-46
2022/03/12 09:30:08;;;;;;;14.03;11.00;;;9.60;39.90;;;;;;5022056;28;20999;-47
2022/03/12 09:32:35;;;;;;;9.90;8.63;;;9.60;39.80;;;;;;5017829;28;20459;-47
2022/03/12 09:35:03;;;;;;;14.83;7.53;;;9.70;38.40;;;;;;5015822;28;20810;-47
2022/03/12 09:37:29;;;;;;;8.40;6.70;;;9.70;38.40;;;;;;5017661;28;20991;-47
2022/03/12 09:39:57;;;;;;;8.37;6.77;;;9.80;40.40;;;;;;5019117;28;20460;-47
2022/03/12 09:42:26;;;;;;;7.73;6.73;;;10.00;40.30;;;;;;5016313;28;20463;-46
2022/03/12 09:44:52;;;;;;;11.63;7.70;;;10.10;38.80;;;;;;5014487;28;20555;-47
2022/03/12 09:47:19;;;;;;;7.87;6.40;;;10.30;38.10;;;;;;5016349;28;21084;-47
2022/03/12 09:49:46;;;;;;;8.03;6.80;;;10.40;37.70;;;;;;5016300;28;20460;-47
2022/03/12 09:52:13;;;;;;;8.00;6.40;;;10.50;38.10;;;;;;5018455;28;20459;-47
2022/03/12 09:54:41;;;;;;;11.03;7.40;;;10.80;37.90;;;;;;5020296;28;20458;-47
2022/03/12 09:57:08;;;;;;;10.40;7.60;;;11.00;38.70;;;;;;5019547;28;20459;-47
2022/03/12 09:59:34;;;;;;;8.27;6.60;;;11.20;38.80;;;;;;5005297;28;20456;-48
2022/03/12 10:02:01;;;;;;;10.53;6.50;;;11.40;37.90;;;;;;5011006;28;20468;-48
2022/03/12 10:04:28;;;;;;;10.03;7.73;;;11.50;37.20;;;;;;5014233;28;20456;-48
2022/03/12 10:06:56;;;;;;;15.80;8.20;;;11.50;36.50;;;;;;5011835;28;20482;-48
2022/03/12 10:09:23;;;;;;;13.10;7.77;;;11.60;36.60;;;;;;5005575;28;20460;-48
2022/03/12 10:11:53;;;;;;;10.43;7.57;;;11.70;36.30;;;;;;5005229;28;21031;-48
2022/03/12 10:14:22;;;;;;;13.47;7.50;;;11.80;36.10;;;;;;5007538;28;20500;-47
2022/03/12 10:16:49;;;;;;;124.00;19.13;;;12.00;36.30;;;;;;5014451;28;20468;-48
2022/03/12 10:19:19;;;;;;;1492.07;137.47;;;12.20;36.10;;;;;;5002909;28;20467;-48
2022/03/12 10:21:47;;;;;;;945.60;106.47;;;12.40;36.00;;;;;;5014220;28;20475;-48
2022/03/12 10:24:14;;;;;;;214.10;28.63;;;12.60;36.70;;;;;;5014536;28;20469;-48
2022/03/12 10:26:42;;;;;;;159.57;20.73;;;12.90;36.70;;;;;;5019503;28;20451;-47
2022/03/12 10:29:09;;;;;;;326.50;35.57;;;13.10;35.20;;;;;;5016063;28;20489;-46
2022/03/12 10:31:38;;;;;;;22.33;8.97;;;13.30;35.50;;;;;;5012304;28;20463;-47
2022/03/12 10:34:18;;;;;;;9.63;7.30;;;13.60;36.10;;;;;;5012142;28;20818;-47
2022/03/12 10:36:46;;;;;;;10.30;7.20;;;14.00;35.40;;;;;;5017948;28;20459;-46
2022/03/12 10:39:13;;;;;;;12.73;8.17;;;14.30;34.20;;;;;;5025113;28;20455;-46
2022/03/12 10:41:41;;;;;;;8.23;6.90;;;14.50;34.50;;;;;;5014859;28;20456;-46
2022/03/12 10:44:08;;;;;;;10.00;7.00;;;14.80;33.90;;;;;;5022426;28;20447;-46
2022/03/12 10:46:40;;;;;;;80.67;14.00;;;15.00;33.10;;;;;;5016420;28;20479;-46
2022/03/12 10:49:08;;;;;;;11.90;7.47;;;15.10;33.10;;;;;;4997298;28;20746;-48
2022/03/12 10:51:40;;;;;;;9.20;7.20;;;15.00;33.40;;;;;;5030344;28;20985;-48
2022/03/12 10:54:10;;;;;;;12.30;7.93;;;15.00;32.80;;;;;;5016391;28;20460;-48
2022/03/12 10:56:51;;;;;;;11.03;7.73;;;14.90;33.30;;;;;;5018326;28;20456;-48
2022/03/12 10:59:23;;;;;;;9.07;7.17;;;14.90;33.30;;;;;;5018967;28;20452;-48
2022/03/12 11:02:01;;;;;;;9.37;7.10;;;15.10;33.40;;;;;;5006487;28;20881;-48
2022/03/12 11:04:31;;;;;;;8.80;7.33;;;15.20;32.90;;;;;;5020058;28;20578;-48
2022/03/12 11:07:01;;;;;;;9.10;8.20;;;15.40;33.50;;;;;;5018873;28;20554;-47
2022/03/12 11:09:39;;;;;;;10.03;7.77;;;15.50;33.70;;;;;;5013864;28;21256;-48
2022/03/12 11:12:38;;;;;;;12.23;8.50;;;15.70;32.70;;;;;;5023505;28;20551;-48
2022/03/12 11:15:16;;;;;;;8.50;7.23;;;15.80;32.40;;;;;;5003177;28;20956;-48
2022/03/12 11:17:44;;;;;;;11.63;8.90;;;16.00;32.20;;;;;;5020002;28;20528;-48
2022/03/12 11:20:20;;;;;;;9.13;7.60;;;16.10;32.40;;;;;;5023722;28;20463;-48
2022/03/12 11:23:04;;;;;;;9.00;7.17;;;16.30;32.70;;;;;;5023708;28;20575;-48
2022/03/12 11:25:31;;;;;;;8.93;8.00;;;16.50;32.40;;;;;;5018162;28;20464;-48
2022/03/12 11:28:02;;;;;;;11.93;7.87;;;16.60;32.70;;;;;;5016180;28;20845;-48
2022/03/12 11:30:30;;;;;;;9.23;7.73;;;16.80;32.80;;;;;;5020736;28;20455;-48
2022/03/12 11:33:04;;;;;;;12.20;7.53;;;16.80;32.30;;;;;;5022921;28;21138;-48
2022/03/12 11:35:36;;;;;;;11.20;8.17;;;16.80;32.60;;;;;;5013788;28;20464;-47
2022/03/12 11:38:21;;;;;;;9.60;8.07;;;16.80;32.60;;;;;;5004019;28;20693;-48
2022/03/12 11:41:01;;;;;;;14.07;7.73;;;16.80;32.80;;;;;;5021963;28;20452;-48
2022/03/12 11:43:32;;;;;;;10.07;8.90;;;16.80;32.90;;;;;;5022612;28;20928;-47
2022/03/12 11:46:04;;;;;;;8.17;7.27;;;16.80;33.70;;;;;;5016152;28;20592;-47
2022/03/12 11:48:32;;;;;;;10.60;8.50;;;16.70;33.60;;;;;;5023753;28;20489;-47
2022/03/12 11:51:02;;;;;;;10.83;8.83;;;16.60;33.60;;;;;;5021994;28;20464;-47
2022/03/12 11:53:39;;;;;;;12.40;8.50;;;16.60;33.10;;;;;;5001458;28;20557;-47
2022/03/12 11:56:16;;;;;;;12.30;8.40;;;16.50;33.10;;;;;;5022342;28;21077;-47
2022/03/12 11:58:44;;;;;;;8.40;7.10;;;16.50;33.10;;;;;;5017464;28;20550;-47
2022/03/12 12:01:19;;;;;;;8.73;7.70;;;16.40;33.10;;;;;;5019101;28;20471;-46
2022/03/12 12:03:50;;;;;;;10.57;8.50;;;16.50;34.80;;;;;;5018699;28;20793;-47
2022/03/12 12:06:17;;;;;;;15.13;8.53;;;16.50;35.00;;;;;;5024392;28;20471;-47
2022/03/12 12:08:45;;;;;;;9.13;8.00;;;16.40;34.80;;;;;;5020762;28;20832;-47
2022/03/12 12:11:12;;;;;;;14.37;8.30;;;16.50;34.80;;;;;;5015557;28;20542;-47
2022/03/12 12:13:44;;;;;;;13.10;9.17;;;16.50;34.90;;;;;;5017543;28;20468;-47
2022/03/12 12:16:12;;;;;;;11.97;8.60;;;16.40;34.70;;;;;;5019227;28;20513;-47
2022/03/12 12:18:39;;;;;;;13.60;9.30;;;16.30;35.00;;;;;;5021914;28;20542;-47
2022/03/12 12:21:06;;;;;;;10.27;7.80;;;16.30;35.20;;;;;;5014133;28;20464;-47
2022/03/12 12:23:32;;;;;;;10.63;9.27;;;16.30;35.20;;;;;;5021072;28;20472;-47
2022/03/12 12:26:10;;;;;;;8.80;7.90;;;16.30;35.60;;;;;;5025075;28;20466;-46
2022/03/12 12:29:03;;;;;;;9.53;8.50;;;16.30;35.80;;;;;;5023968;28;20483;-47
2022/03/12 12:31:32;;;;;;;9.60;8.43;;;16.30;36.70;;;;;;5018434;28;20976;-47
2022/03/12 12:34:00;;;;;;;11.57;8.43;;;16.30;37.10;;;;;;5022274;28;20964;-47
2022/03/12 12:36:27;;;;;;;17.07;8.93;;;16.40;37.70;;;;;;5005933;28;20511;-47
2022/03/12 12:39:12;;;;;;;11.07;8.77;;;16.40;37.20;;;;;;5023815;28;20455;-47
2022/03/12 12:41:53;;;;;;;17.57;8.77;;;16.10;37.50;;;;;;5022192;28;20555;-47
2022/03/12 12:44:40;;;;;;;11.17;9.37;;;16.10;37.60;;;;;;5018790;28;20986;-47
2022/03/12 12:47:20;;;;;;;11.10;9.10;;;16.10;37.50;;;;;;5022085;28;22340;-47
2022/03/12 12:49:55;;;;;;;13.33;10.67;;;16.20;37.40;;;;;;5021346;28;20551;-47
2022/03/12 12:52:23;;;;;;;13.20;9.20;;;16.20;37.50;;;;;;5023818;28;20455;-47
2022/03/12 12:54:55;;;;;;;9.73;7.90;;;16.20;37.70;;;;;;5022898;28;20992;-47
2022/03/12 12:57:42;;;;;;;12.30;8.40;;;16.30;38.40;;;;;;5021735;28;20463;-46
2022/03/12 13:00:35;;;;;;;15.73;9.03;;;16.30;38.40;;;;;;5021125;28;20455;-47